Time,TemperatureF,DewpointF,PressureIn,WindDirection,WindDirectionDegrees,WindSpeedMPH,WindSpeedGustMPH,Humidity,HourlyPrecipIn,Conditions,Clouds,dailyrainin,SoftwareType,DateUTC
2013-03-12 00:00:00,41.2,38.5,30.15,NW,315,1.0,2.0,90,0.00,,,0.00,meteohub,2013-03-12 04:00:00,
2013-03-12 00:01:00,41.2,38.5,30.14,NW,315,2.0,2.0,90,0.00,,,0.00,meteohub,2013-03-12 04:01:00,
2013-03-12 00:02:00,41.2,38.5,30.14,West,270,2.0,2.0,90,0.00,,,0.00,meteohub,2013-03-12 04:02:00,
2013-03-12 00:07:00,41.0,38.3,30.14,West,270,1.0,2.0,90,0.00,,,0.00,meteohub,2013-03-12 04:07:00,
2013-03-12 00:12:00,41.0,38.3,30.14,West,270,0.0,2.0,90,0.00,,,0.00,meteohub,2013-03-12 04:12:00,
2013-03-12 00:17:00,40.8,38.5,30.14,West,270,1.0,2.0,91,0.00,,,0.00,meteohub,2013-03-12 04:17:00,
2013-03-12 00:22:00,40.6,38.3,30.14,West,270,0.0,2.0,91,0.00,,,0.00,meteohub,2013-03-12 04:22:00,
2013-03-12 00:27:00,40.6,38.3,30.14,NW,315,0.0,2.0,91,0.00,,,0.00,meteohub,2013-03-12 04:27:00,
2013-03-12 00:32:00,40.6,38.3,30.13,West,270,1.0,2.0,91,0.00,,,0.00,meteohub,2013-03-12 04:32:00,
2013-03-12 00:37:00,40.5,38.1,30.13,West,270,0.0,2.0,91,0.00,,,0.00,meteohub,2013-03-12 04:37:00,
2013-03-12 00:42:00,40.3,37.9,30.13,West,270,0.0,2.0,91,0.00,,,0.00,meteohub,2013-03-12 04:42:00,
2013-03-12 00:47:00,40.6,38.3,30.13,West,270,1.0,2.0,91,0.00,,,0.00,meteohub,2013-03-12 04:47:00,
2013-03-12 00:52:00,40.3,37.9,30.13,West,270,2.0,3.0,91,0.00,,,0.00,meteohub,2013-03-12 04:52:00,
2013-03-12 00:58:00,40.5,38.1,30.14,West,270,0.0,3.0,91,0.00,,,0.00,meteohub,2013-03-12 04:58:00,
2013-03-12 01:03:00,40.6,38.5,30.14,West,270,2.0,3.0,92,0.00,,,0.00,meteohub,2013-03-12 05:03:00,
2013-03-12 01:09:00,40.6,38.5,30.13,West,270,2.0,2.0,92,0.00,,,0.00,meteohub,2013-03-12 05:09:00,
2013-03-12 01:14:00,40.5,38.3,30.13,NW,315,3.0,3.0,92,0.00,,,0.00,meteohub,2013-03-12 05:14:00,
2013-03-12 01:19:00,40.6,38.5,30.12,West,270,4.0,4.0,92,0.00,,,0.00,meteohub,2013-03-12 05:19:00,
2013-03-12 01:25:00,40.8,38.7,30.12,NW,315,3.0,4.0,92,0.00,,,0.00,meteohub,2013-03-12 05:25:00,
2013-03-12 01:30:00,41.0,38.7,30.13,West,270,4.0,4.0,91,0.00,,,0.00,meteohub,2013-03-12 05:30:00,
2013-03-12 01:35:00,41.5,39.4,30.12,West,270,5.0,5.0,92,0.00,,,0.00,meteohub,2013-03-12 05:35:00,
2013-03-12 01:40:00,41.7,39.6,30.12,North,0,7.0,7.0,92,0.00,,,0.00,meteohub,2013-03-12 05:40:00,
2013-03-12 01:45:00,41.7,39.6,30.12,West,270,3.0,7.0,92,0.00,,,0.00,meteohub,2013-03-12 05:45:00,
2013-03-12 01:50:00,41.5,39.4,30.12,NW,315,2.0,7.0,92,0.00,,,0.00,meteohub,2013-03-12 05:50:00,
2013-03-12 01:56:00,41.5,39.4,30.12,NW,315,2.0,7.0,92,0.00,,,0.00,meteohub,2013-03-12 05:56:00,
2013-03-12 02:02:00,41.5,39.4,30.12,NW,315,4.0,5.0,92,0.00,,,0.00,meteohub,2013-03-12 06:02:00,
2013-03-12 02:07:00,41.5,39.4,30.12,NW,315,4.0,5.0,92,0.00,,,0.00,meteohub,2013-03-12 06:07:00,
2013-03-12 02:12:00,41.4,39.2,30.11,West,270,2.0,5.0,92,0.00,,,0.00,meteohub,2013-03-12 06:12:00,
2013-03-12 02:17:00,41.5,39.4,30.11,NW,315,2.0,4.0,92,0.00,,,0.00,meteohub,2013-03-12 06:17:00,
2013-03-12 02:22:00,41.5,39.4,30.12,North,0,2.0,4.0,92,0.00,,,0.00,meteohub,2013-03-12 06:22:00,
2013-03-12 02:27:00,41.5,39.4,30.11,NW,315,4.0,4.0,92,0.00,,,0.00,meteohub,2013-03-12 06:27:00,
2013-03-12 02:32:00,41.5,39.4,30.11,West,270,2.0,4.0,92,0.00,,,0.00,meteohub,2013-03-12 06:32:00,
2013-03-12 02:38:00,41.5,39.4,30.10,WNW,293,2.0,4.0,92,0.00,,,0.00,meteohub,2013-03-12 06:38:00,
2013-03-12 02:43:00,41.5,39.4,30.10,NW,315,3.0,5.0,92,0.00,,,0.00,meteohub,2013-03-12 06:43:00,
2013-03-12 02:48:00,41.5,39.4,30.09,West,270,3.0,5.0,92,0.00,,,0.00,meteohub,2013-03-12 06:48:00,
2013-03-12 02:53:00,41.5,39.4,30.09,NW,315,2.0,4.0,92,0.00,,,0.00,meteohub,2013-03-12 06:53:00,
2013-03-12 02:59:00,41.7,39.9,30.09,NW,315,2.0,4.0,93,0.00,,,0.00,meteohub,2013-03-12 06:59:00,
2013-03-12 03:04:00,41.7,39.9,30.09,NW,315,1.0,4.0,93,0.00,,,0.00,meteohub,2013-03-12 07:04:00,
2013-03-12 03:09:00,41.7,39.9,30.09,NW,315,2.0,4.0,93,0.00,,,0.00,meteohub,2013-03-12 07:09:00,
2013-03-12 03:14:00,41.7,39.9,30.09,NW,315,2.0,4.0,93,0.00,,,0.00,meteohub,2013-03-12 07:14:00,
2013-03-12 03:19:00,41.5,39.7,30.08,NW,315,2.0,4.0,93,0.00,,,0.00,meteohub,2013-03-12 07:19:00,
2013-03-12 03:24:00,41.5,39.7,30.08,West,270,1.0,4.0,93,0.00,,,0.00,meteohub,2013-03-12 07:24:00,
2013-03-12 03:30:00,41.7,39.9,30.07,NW,315,3.0,4.0,93,0.00,,,0.00,meteohub,2013-03-12 07:30:00,
2013-03-12 03:35:00,41.9,40.1,30.07,NW,315,3.0,4.0,93,0.00,,,0.00,meteohub,2013-03-12 07:35:00,
2013-03-12 03:40:00,41.9,40.1,30.06,NW,315,5.0,5.0,93,0.00,,,0.00,meteohub,2013-03-12 07:40:00,
2013-03-12 03:45:00,42.1,40.3,30.06,NW,315,3.0,5.0,93,0.00,,,0.00,meteohub,2013-03-12 07:45:00,
2013-03-12 03:50:00,41.9,40.1,30.06,West,270,2.0,5.0,93,0.00,,,0.00,meteohub,2013-03-12 07:50:00,
2013-03-12 03:56:00,42.1,40.3,30.06,West,270,2.0,5.0,93,0.00,,,0.00,meteohub,2013-03-12 07:56:00,
2013-03-12 04:01:00,42.3,40.5,30.05,NW,315,3.0,3.0,93,0.00,,,0.00,meteohub,2013-03-12 08:01:00,
2013-03-12 04:07:00,42.4,40.6,30.05,SE,135,4.0,6.0,93,0.00,,,0.00,meteohub,2013-03-12 08:07:00,
2013-03-12 04:12:00,42.4,40.8,30.05,NW,315,4.0,6.0,94,0.00,,,0.00,meteohub,2013-03-12 08:12:00,
2013-03-12 04:17:00,42.6,41.0,30.06,WNW,293,2.0,6.0,94,0.00,,,0.00,meteohub,2013-03-12 08:17:00,
2013-03-12 04:22:00,42.8,41.0,30.06,NW,315,2.0,4.0,93,0.00,,,0.00,meteohub,2013-03-12 08:22:00,
2013-03-12 04:27:00,42.8,41.0,30.05,NW,315,3.0,4.0,93,0.00,,,0.00,meteohub,2013-03-12 08:27:00,
2013-03-12 04:33:00,42.8,41.0,30.05,NW,315,2.0,4.0,93,0.00,,,0.00,meteohub,2013-03-12 08:33:00,
2013-03-12 04:38:00,42.8,41.0,30.04,West,270,2.0,4.0,93,0.00,,,0.00,meteohub,2013-03-12 08:38:00,
2013-03-12 04:43:00,42.8,41.0,30.05,West,270,2.0,4.0,93,0.00,,,0.00,meteohub,2013-03-12 08:43:00,
2013-03-12 04:49:00,42.8,41.0,30.05,NW,315,2.0,3.0,93,0.00,,,0.00,meteohub,2013-03-12 08:49:00,
2013-03-12 04:54:00,43.0,41.2,30.04,West,270,2.0,3.0,93,0.00,,,0.00,meteohub,2013-03-12 08:54:00,
2013-03-12 04:59:00,42.8,41.0,30.04,West,270,2.0,3.0,93,0.00,,,0.00,meteohub,2013-03-12 08:59:00,
2013-03-12 05:04:00,43.0,41.2,30.04,NW,315,2.0,3.0,93,0.00,,,0.00,meteohub,2013-03-12 09:04:00,
2013-03-12 05:09:00,43.0,41.2,30.04,West,270,2.0,4.0,93,0.00,,,0.00,meteohub,2013-03-12 09:09:00,
2013-03-12 05:14:00,43.0,41.2,30.04,NW,315,2.0,4.0,93,0.00,,,0.00,meteohub,2013-03-12 09:14:00,
2013-03-12 05:19:00,43.2,41.4,30.04,West,270,2.0,4.0,93,0.00,,,0.00,meteohub,2013-03-12 09:19:00,
2013-03-12 05:25:00,43.3,41.7,30.04,NW,315,3.0,4.0,94,0.00,,,0.00,meteohub,2013-03-12 09:25:00,
2013-03-12 05:30:00,43.5,41.9,30.05,NW,315,3.0,4.0,94,0.00,,,0.00,meteohub,2013-03-12 09:30:00,
2013-03-12 05:35:00,43.7,42.1,30.05,NW,315,3.0,4.0,94,0.00,,,0.00,meteohub,2013-03-12 09:35:00,
2013-03-12 05:40:00,43.7,42.1,30.05,West,270,3.0,4.0,94,0.00,,,0.00,meteohub,2013-03-12 09:40:00,
2013-03-12 05:45:00,43.9,42.3,30.05,NW,315,2.0,4.0,94,0.00,,,0.00,meteohub,2013-03-12 09:45:00,
2013-03-12 05:51:00,43.7,42.1,30.04,NW,315,2.0,4.0,94,0.00,,,0.00,meteohub,2013-03-12 09:51:00,
2013-03-12 05:56:00,43.9,42.3,30.05,West,270,2.0,4.0,94,0.00,,,0.00,meteohub,2013-03-12 09:56:00,
2013-03-12 06:01:00,43.9,42.3,30.05,West,270,2.0,4.0,94,0.00,,,0.00,meteohub,2013-03-12 10:01:00,
2013-03-12 06:07:00,44.1,42.4,30.05,North,0,3.0,5.0,94,0.00,,,0.00,meteohub,2013-03-12 10:07:00,
2013-03-12 06:12:00,44.1,42.4,30.05,NW,315,2.0,5.0,94,0.00,,,0.00,meteohub,2013-03-12 10:12:00,
2013-03-12 06:17:00,44.1,42.4,30.04,West,270,2.0,5.0,94,0.00,,,0.00,meteohub,2013-03-12 10:17:00,
2013-03-12 06:22:00,44.1,42.4,30.04,WNW,293,2.0,4.0,94,0.00,,,0.00,meteohub,2013-03-12 10:22:00,
2013-03-12 06:27:00,44.1,42.4,30.04,NW,315,2.0,3.0,94,0.00,,,0.00,meteohub,2013-03-12 10:27:00,
2013-03-12 06:33:00,44.1,42.4,30.04,West,270,2.0,4.0,94,0.00,,,0.00,meteohub,2013-03-12 10:33:00,
2013-03-12 06:38:00,44.1,42.4,30.04,NW,315,2.0,4.0,94,0.00,,,0.00,meteohub,2013-03-12 10:38:00,
2013-03-12 06:43:00,44.1,42.4,30.04,West,270,4.0,4.0,94,0.00,,,0.00,meteohub,2013-03-12 10:43:00,
2013-03-12 06:48:00,44.1,42.4,30.04,NW,315,2.0,4.0,94,0.00,,,0.00,meteohub,2013-03-12 10:48:00,
2013-03-12 06:53:00,44.1,42.4,30.04,South,180,3.0,4.0,94,0.00,,,0.00,meteohub,2013-03-12 10:53:00,
2013-03-12 06:58:00,44.1,42.4,30.04,NW,315,4.0,4.0,94,0.00,,,0.00,meteohub,2013-03-12 10:58:00,
2013-03-12 07:04:00,44.2,43.0,30.03,NW,315,2.0,4.0,95,0.00,,,0.00,meteohub,2013-03-12 11:04:00,
2013-03-12 07:09:00,44.1,42.4,30.03,NW,315,3.0,4.0,94,0.00,,,0.00,meteohub,2013-03-12 11:09:00,
2013-03-12 07:14:00,44.1,42.4,30.03,NW,315,3.0,4.0,94,0.00,,,0.00,meteohub,2013-03-12 11:14:00,
2013-03-12 07:19:00,44.1,42.8,30.03,WNW,293,2.0,4.0,95,0.00,,,0.00,meteohub,2013-03-12 11:19:00,
2013-03-12 07:25:00,44.1,42.8,30.02,NW,315,4.0,4.0,95,0.00,,,0.00,meteohub,2013-03-12 11:25:00,
2013-03-12 07:30:00,44.2,43.0,30.03,West,270,2.0,4.0,95,0.00,,,0.00,meteohub,2013-03-12 11:30:00,
2013-03-12 07:35:00,44.4,43.2,30.03,NW,315,2.0,4.0,95,0.00,,,0.00,meteohub,2013-03-12 11:35:00,
2013-03-12 07:40:00,44.6,43.0,30.02,NW,315,2.0,4.0,94,0.00,,,0.00,meteohub,2013-03-12 11:40:00,
2013-03-12 07:45:00,44.8,43.2,30.02,NW,315,3.0,6.0,94,0.00,,,0.00,meteohub,2013-03-12 11:45:00,
2013-03-12 07:51:00,45.0,43.3,30.02,West,270,2.0,6.0,94,0.00,,,0.00,meteohub,2013-03-12 11:51:00,
2013-03-12 07:56:00,45.1,43.5,30.02,NW,315,2.0,6.0,94,0.00,,,0.00,meteohub,2013-03-12 11:56:00,
2013-03-12 08:01:00,45.3,43.7,30.03,West,270,3.0,4.0,94,0.00,,,0.00,meteohub,2013-03-12 12:01:00,
2013-03-12 08:06:00,45.3,44.1,30.03,South,180,5.0,5.0,95,0.00,,,0.00,meteohub,2013-03-12 12:06:00,
2013-03-12 08:12:00,45.7,44.4,30.02,West,270,2.0,5.0,95,0.00,,,0.00,meteohub,2013-03-12 12:12:00,
2013-03-12 08:17:00,46.0,44.6,30.03,NW,315,3.0,5.0,95,0.00,,,0.00,meteohub,2013-03-12 12:17:00,
2013-03-12 08:22:00,46.0,44.6,30.02,South,180,3.0,5.0,95,0.00,,,0.00,meteohub,2013-03-12 12:22:00,
2013-03-12 08:27:00,46.4,44.8,30.02,West,270,2.0,4.0,94,0.00,,,0.00,meteohub,2013-03-12 12:27:00,
2013-03-12 08:32:00,46.6,45.0,30.01,West,270,5.0,5.0,94,0.00,,,0.00,meteohub,2013-03-12 12:32:00,
2013-03-12 08:37:00,46.9,45.3,30.01,NW,315,5.0,5.0,94,0.00,,,0.00,meteohub,2013-03-12 12:37:00,
2013-03-12 08:42:00,47.1,45.7,30.01,WNW,293,2.0,5.0,95,0.00,,,0.00,meteohub,2013-03-12 12:42:00,
2013-03-12 08:47:00,47.5,46.0,30.02,NW,315,3.0,5.0,95,0.00,,,0.00,meteohub,2013-03-12 12:47:00,
2013-03-12 08:53:00,47.8,46.4,30.03,North,0,4.0,6.0,95,0.00,,,0.00,meteohub,2013-03-12 12:53:00,
2013-03-12 08:58:00,48.4,46.8,30.02,South,180,3.0,6.0,94,0.00,,,0.00,meteohub,2013-03-12 12:58:00,
2013-03-12 09:03:00,48.7,47.1,30.02,West,270,3.0,6.0,94,0.00,,,0.00,meteohub,2013-03-12 13:03:00,
2013-03-12 09:08:00,48.7,47.1,30.02,South,180,4.0,5.0,94,0.00,,,0.00,meteohub,2013-03-12 13:08:00,
2013-03-12 09:14:00,48.7,47.1,30.03,NW,315,7.0,7.0,94,0.00,,,0.00,meteohub,2013-03-12 13:14:00,
2013-03-12 09:19:00,48.9,47.3,30.02,NW,315,5.0,7.0,94,0.00,,,0.00,meteohub,2013-03-12 13:19:00,
2013-03-12 09:24:00,49.1,47.5,30.03,West,270,5.0,7.0,94,0.00,,,0.00,meteohub,2013-03-12 13:24:00,
2013-03-12 09:29:00,49.1,47.5,30.02,South,180,11.0,11.0,94,0.00,,,0.00,meteohub,2013-03-12 13:29:00,
2013-03-12 09:34:00,49.5,47.5,30.02,WNW,293,8.0,8.0,93,0.00,,,0.00,meteohub,2013-03-12 13:34:00,
2013-03-12 09:39:00,49.8,47.8,30.02,NW,315,3.0,11.0,93,0.00,,,0.00,meteohub,2013-03-12 13:39:00,
2013-03-12 09:44:00,49.8,47.7,30.02,WNW,293,6.0,11.0,92,0.00,,,0.00,meteohub,2013-03-12 13:44:00,
2013-03-12 09:50:00,50.0,47.5,30.02,West,270,4.0,8.0,91,0.00,,,0.00,meteohub,2013-03-12 13:50:00,
2013-03-12 09:55:00,50.2,47.7,30.02,WNW,293,3.0,7.0,91,0.00,,,0.00,meteohub,2013-03-12 13:55:00,
2013-03-12 10:00:00,50.2,47.3,30.02,NW,315,3.0,7.0,90,0.00,,,0.00,meteohub,2013-03-12 14:00:00,
2013-03-12 10:05:00,50.4,47.5,30.02,NW,315,3.0,7.0,90,0.00,,,0.00,meteohub,2013-03-12 14:05:00,
2013-03-12 10:10:00,50.5,47.5,30.01,NW,315,3.0,7.0,89,0.00,,,0.00,meteohub,2013-03-12 14:10:00,
2013-03-12 10:16:00,50.9,47.5,30.01,NW,315,4.0,7.0,88,0.00,,,0.00,meteohub,2013-03-12 14:16:00,
2013-03-12 10:21:00,50.9,47.1,30.01,NW,315,7.0,8.0,87,0.00,,,0.00,meteohub,2013-03-12 14:21:00,
2013-03-12 10:26:00,51.3,47.5,30.01,West,270,4.0,8.0,87,0.00,,,0.00,meteohub,2013-03-12 14:26:00,
2013-03-12 10:32:00,51.4,47.5,30.01,West,270,4.0,8.0,86,0.00,,,0.00,meteohub,2013-03-12 14:32:00,
2013-03-12 10:37:00,51.4,47.5,30.01,NW,315,3.0,7.0,86,0.00,,,0.00,meteohub,2013-03-12 14:37:00,
2013-03-12 10:42:00,51.4,47.1,30.00,NW,315,3.0,6.0,85,0.00,,,0.00,meteohub,2013-03-12 14:42:00,
2013-03-12 10:47:00,51.6,47.3,30.00,West,270,5.0,8.0,85,0.00,,,0.00,meteohub,2013-03-12 14:47:00,
2013-03-12 10:52:00,51.8,47.1,30.00,NW,315,3.0,8.0,84,0.00,,,0.00,meteohub,2013-03-12 14:52:00,
2013-03-12 10:57:00,51.8,47.1,30.00,NW,315,5.0,8.0,84,0.00,,,0.00,meteohub,2013-03-12 14:57:00,
2013-03-12 11:02:00,51.8,47.1,30.00,West,270,4.0,8.0,84,0.00,,,0.00,meteohub,2013-03-12 15:02:00,
2013-03-12 11:07:00,51.8,47.1,29.99,NW,315,5.0,6.0,84,0.00,,,0.00,meteohub,2013-03-12 15:07:00,
2013-03-12 11:12:00,52.2,47.1,29.99,NW,315,4.0,6.0,83,0.00,,,0.00,meteohub,2013-03-12 15:12:00,
2013-03-12 11:18:00,52.5,47.5,29.99,West,270,4.0,5.0,83,0.00,,,0.00,meteohub,2013-03-12 15:18:00,
2013-03-12 11:23:00,52.5,47.1,29.99,NW,315,8.0,8.0,82,0.00,,,0.00,meteohub,2013-03-12 15:23:00,
2013-03-12 11:28:00,52.7,47.3,29.99,NW,315,7.0,8.0,82,0.00,,,0.00,meteohub,2013-03-12 15:28:00,
2013-03-12 11:33:00,52.9,47.5,29.99,West,270,4.0,8.0,82,0.00,,,0.00,meteohub,2013-03-12 15:33:00,
2013-03-12 11:38:00,52.9,47.5,29.98,NW,315,4.0,8.0,82,0.00,,,0.00,meteohub,2013-03-12 15:38:00,
2013-03-12 11:43:00,52.9,47.3,29.98,NW,315,4.0,8.0,81,0.00,,,0.00,meteohub,2013-03-12 15:43:00,
2013-03-12 11:49:00,53.1,47.3,29.97,NW,315,3.0,8.0,81,0.00,,,0.00,meteohub,2013-03-12 15:49:00,
2013-03-12 11:54:00,53.2,47.5,29.98,NW,315,8.0,8.0,81,0.00,,,0.00,meteohub,2013-03-12 15:54:00,
2013-03-12 11:59:00,53.6,47.7,29.97,NW,315,4.0,8.0,80,0.00,,,0.00,meteohub,2013-03-12 15:59:00,
2013-03-12 12:05:00,53.6,47.3,29.97,West,270,3.0,8.0,79,0.00,,,0.00,meteohub,2013-03-12 16:05:00,
2013-03-12 12:10:00,53.6,47.3,29.96,West,270,5.0,8.0,79,0.00,,,0.00,meteohub,2013-03-12 16:10:00,
2013-03-12 12:15:00,53.8,47.5,29.97,NW,315,8.0,8.0,79,0.00,,,0.00,meteohub,2013-03-12 16:15:00,
2013-03-12 12:20:00,53.8,47.5,29.96,West,270,3.0,8.0,79,0.00,,,0.00,meteohub,2013-03-12 16:20:00,
2013-03-12 12:26:00,53.8,47.5,29.96,NW,315,7.0,8.0,79,0.00,,,0.00,meteohub,2013-03-12 16:26:00,
2013-03-12 12:31:00,53.8,47.5,29.96,NW,315,4.0,8.0,79,0.00,,,0.00,meteohub,2013-03-12 16:31:00,
2013-03-12 12:36:00,53.8,47.5,29.95,NW,315,4.0,7.0,79,0.00,,,0.00,meteohub,2013-03-12 16:36:00,
2013-03-12 12:41:00,53.6,47.3,29.95,West,270,9.0,9.0,79,0.00,,,0.00,meteohub,2013-03-12 16:41:00,
2013-03-12 12:47:00,53.8,47.5,29.95,NW,315,4.0,9.0,79,0.00,,,0.00,meteohub,2013-03-12 16:47:00,
2013-03-12 12:52:00,53.8,47.5,29.95,South,180,8.0,9.0,79,0.00,,,0.00,meteohub,2013-03-12 16:52:00,
2013-03-12 12:57:00,54.0,47.7,29.95,North,0,6.0,9.0,79,0.00,,,0.00,meteohub,2013-03-12 16:57:00,
2013-03-12 13:02:00,54.1,47.5,29.94,West,270,4.0,8.0,78,0.00,,,0.00,meteohub,2013-03-12 17:02:00,
2013-03-12 13:07:00,54.7,48.0,29.94,NW,315,4.0,8.0,78,0.00,,,0.00,meteohub,2013-03-12 17:07:00,
2013-03-12 13:12:00,55.2,48.6,29.94,NW,315,8.0,8.0,78,0.00,,,0.00,meteohub,2013-03-12 17:12:00,
2013-03-12 13:17:00,55.8,48.4,29.94,NW,315,4.0,8.0,76,0.00,,,0.00,meteohub,2013-03-12 17:17:00,
2013-03-12 13:22:00,56.3,48.2,29.94,West,270,4.0,8.0,74,0.00,,,0.00,meteohub,2013-03-12 17:22:00,
2013-03-12 13:27:00,56.7,48.4,29.93,NW,315,6.0,8.0,74,0.00,,,0.00,meteohub,2013-03-12 17:27:00,
2013-03-12 13:33:00,57.0,48.4,29.92,NW,315,4.0,7.0,73,0.00,,,0.00,meteohub,2013-03-12 17:33:00,
2013-03-12 13:38:00,57.0,48.4,29.92,West,270,4.0,7.0,73,0.00,,,0.00,meteohub,2013-03-12 17:38:00,
2013-03-12 13:43:00,57.0,48.4,29.92,SW,225,3.0,7.0,73,0.00,,,0.00,meteohub,2013-03-12 17:43:00,
2013-03-12 13:48:00,56.8,48.2,29.92,West,270,6.0,7.0,73,0.00,,,0.00,meteohub,2013-03-12 17:48:00,
2013-03-12 13:53:00,56.7,48.0,29.92,NW,315,4.0,6.0,73,0.00,,,0.00,meteohub,2013-03-12 17:53:00,
2013-03-12 13:59:00,56.5,48.0,29.92,West,270,3.0,6.0,73,0.00,,,0.00,meteohub,2013-03-12 17:59:00,
2013-03-12 14:04:00,56.5,48.0,29.91,NW,315,4.0,8.0,73,0.00,,,0.00,meteohub,2013-03-12 18:04:00,
2013-03-12 14:09:00,56.5,48.0,29.91,NW,315,7.0,8.0,73,0.00,,,0.00,meteohub,2013-03-12 18:09:00,
2013-03-12 14:14:00,56.5,48.0,29.91,West,270,3.0,8.0,73,0.00,,,0.00,meteohub,2013-03-12 18:14:00,
2013-03-12 14:20:00,56.5,48.0,29.91,NW,315,7.0,8.0,73,0.00,,,0.00,meteohub,2013-03-12 18:20:00,
2013-03-12 14:25:00,56.5,48.0,29.90,West,270,4.0,9.0,73,0.00,,,0.00,meteohub,2013-03-12 18:25:00,
2013-03-12 14:30:00,56.5,48.0,29.90,South,180,4.0,9.0,73,0.00,,,0.00,meteohub,2013-03-12 18:30:00,
2013-03-12 14:35:00,56.7,48.0,29.90,North,0,4.0,6.0,73,0.00,,,0.00,meteohub,2013-03-12 18:35:00,
2013-03-12 14:40:00,56.8,48.2,29.89,NW,315,4.0,5.0,73,0.00,,,0.00,meteohub,2013-03-12 18:40:00,
2013-03-12 14:45:00,56.8,48.2,29.89,NW,315,2.0,5.0,73,0.00,,,0.00,meteohub,2013-03-12 18:45:00,
2013-03-12 14:51:00,57.0,48.0,29.89,West,270,6.0,6.0,72,0.00,,,0.00,meteohub,2013-03-12 18:51:00,
2013-03-12 14:56:00,56.8,47.8,29.89,NW,315,5.0,8.0,72,0.00,,,0.00,meteohub,2013-03-12 18:56:00,
2013-03-12 15:01:00,56.8,48.2,29.88,West,270,11.0,11.0,73,0.00,,,0.00,meteohub,2013-03-12 19:01:00,
2013-03-12 15:07:00,56.8,48.2,29.89,NW,315,6.0,11.0,73,0.00,,,0.00,meteohub,2013-03-12 19:07:00,
2013-03-12 15:12:00,56.7,48.0,29.88,NW,315,5.0,11.0,73,0.00,,,0.00,meteohub,2013-03-12 19:12:00,
2013-03-12 15:17:00,56.3,47.8,29.88,NW,315,4.0,11.0,73,0.00,,,0.00,meteohub,2013-03-12 19:17:00,
2013-03-12 15:22:00,56.3,47.8,29.88,West,270,6.0,8.0,73,0.00,,,0.00,meteohub,2013-03-12 19:22:00,
2013-03-12 15:27:00,56.1,47.7,29.87,West,270,4.0,8.0,73,0.00,,,0.00,meteohub,2013-03-12 19:27:00,
2013-03-12 15:32:00,55.9,47.5,29.87,West,270,2.0,8.0,73,0.00,,,0.00,meteohub,2013-03-12 19:32:00,
2013-03-12 15:37:00,55.6,47.5,29.87,NW,315,5.0,8.0,74,0.00,,,0.00,meteohub,2013-03-12 19:37:00,
2013-03-12 15:42:00,55.6,47.8,29.86,NW,315,3.0,8.0,75,0.00,,,0.00,meteohub,2013-03-12 19:42:00,
2013-03-12 15:48:00,55.4,48.0,29.86,West,270,4.0,8.0,76,0.00,,,0.00,meteohub,2013-03-12 19:48:00,
2013-03-12 15:53:00,55.2,48.2,29.86,NW,315,4.0,7.0,77,0.00,,,0.00,meteohub,2013-03-12 19:53:00,
2013-03-12 15:58:00,55.0,48.4,29.86,NW,315,5.0,7.0,78,0.00,,,0.00,meteohub,2013-03-12 19:58:00,
2013-03-12 16:03:00,54.9,48.2,29.86,NW,315,6.0,9.0,78,0.00,,,0.00,meteohub,2013-03-12 20:03:00,
2013-03-12 16:08:00,54.7,48.4,29.86,NW,315,4.0,9.0,79,0.00,,,0.00,meteohub,2013-03-12 20:08:00,
2013-03-12 16:13:00,54.5,48.2,29.85,West,270,5.0,6.0,79,0.00,,,0.00,meteohub,2013-03-12 20:13:00,
2013-03-12 16:19:00,54.3,48.0,29.85,West,270,4.0,7.0,79,0.00,,,0.00,meteohub,2013-03-12 20:19:00,
2013-03-12 16:24:00,54.1,48.0,29.84,NW,315,7.0,7.0,80,0.00,,,0.00,meteohub,2013-03-12 20:24:00,
2013-03-12 16:29:00,54.0,48.0,29.84,West,270,6.0,8.0,80,0.00,,,0.00,meteohub,2013-03-12 20:29:00,
2013-03-12 16:34:00,53.8,48.0,29.83,NW,315,6.0,8.0,81,0.00,,,0.00,meteohub,2013-03-12 20:34:00,
2013-03-12 16:39:00,53.6,48.2,29.83,West,270,4.0,8.0,82,0.00,,,0.00,meteohub,2013-03-12 20:39:00,
2013-03-12 16:44:00,53.4,48.4,29.83,WNW,293,4.0,8.0,83,0.00,,,0.00,meteohub,2013-03-12 20:44:00,
2013-03-12 16:50:00,53.4,48.7,29.83,West,270,4.0,8.0,84,0.00,,,0.00,meteohub,2013-03-12 20:50:00,
2013-03-12 16:55:00,53.4,49.1,29.83,West,270,3.0,8.0,85,0.00,,,0.00,meteohub,2013-03-12 20:55:00,
2013-03-12 17:00:00,53.4,49.1,29.83,West,270,4.0,8.0,85,0.00,,,0.00,meteohub,2013-03-12 21:00:00,
2013-03-12 17:05:00,53.4,49.3,29.82,West,270,3.0,8.0,86,0.00,,,0.00,meteohub,2013-03-12 21:05:00,
2013-03-12 17:11:00,53.4,49.3,29.82,West,270,3.0,8.0,86,0.00,,,0.00,meteohub,2013-03-12 21:11:00,
2013-03-12 17:16:00,53.6,49.5,29.81,West,270,4.0,8.0,86,0.00,,,0.00,meteohub,2013-03-12 21:16:00,
2013-03-12 17:21:00,53.6,49.5,29.81,West,270,5.0,8.0,86,0.00,,,0.00,meteohub,2013-03-12 21:21:00,
2013-03-12 17:26:00,53.6,49.5,29.81,NW,315,15.0,15.0,86,0.00,,,0.00,meteohub,2013-03-12 21:26:00,
2013-03-12 17:31:00,53.6,49.5,29.81,NW,315,7.0,15.0,86,0.00,,,0.00,meteohub,2013-03-12 21:31:00,
2013-03-12 17:37:00,53.6,49.5,29.81,West,270,3.0,15.0,86,0.00,,,0.00,meteohub,2013-03-12 21:37:00,
2013-03-12 17:42:00,53.6,49.8,29.80,NW,315,5.0,15.0,87,0.00,,,0.00,meteohub,2013-03-12 21:42:00,
2013-03-12 17:47:00,53.6,49.8,29.80,NW,315,7.0,8.0,87,0.00,,,0.00,meteohub,2013-03-12 21:47:00,
2013-03-12 17:52:00,53.6,49.8,29.80,West,270,7.0,10.0,87,0.00,,,0.00,meteohub,2013-03-12 21:52:00,
2013-03-12 17:58:00,53.6,49.8,29.79,West,270,8.0,10.0,87,0.00,,,0.00,meteohub,2013-03-12 21:58:00,
2013-03-12 18:03:00,53.4,50.0,29.79,WNW,293,10.0,10.0,88,0.00,,,0.00,meteohub,2013-03-12 22:03:00,
2013-03-12 18:08:00,53.4,50.0,29.78,West,270,6.0,10.0,88,0.01,,,0.01,meteohub,2013-03-12 22:08:00,
2013-03-12 18:13:00,53.4,50.2,29.78,NW,315,4.0,11.0,89,0.01,,,0.01,meteohub,2013-03-12 22:13:00,
2013-03-12 18:18:00,53.4,50.2,29.78,SE,135,5.0,11.0,89,0.01,,,0.01,meteohub,2013-03-12 22:18:00,
2013-03-12 18:24:00,53.4,50.2,29.77,West,270,4.0,11.0,89,0.01,,,0.01,meteohub,2013-03-12 22:24:00,
2013-03-12 18:29:00,53.2,50.0,29.76,NW,315,6.0,9.0,89,0.02,,,0.02,meteohub,2013-03-12 22:29:00,
2013-03-12 18:34:00,53.4,50.5,29.76,NW,315,6.0,9.0,90,0.02,,,0.02,meteohub,2013-03-12 22:34:00,
2013-03-12 18:39:00,53.4,50.5,29.77,West,270,7.0,9.0,90,0.04,,,0.04,meteohub,2013-03-12 22:39:00,
2013-03-12 18:44:00,53.4,50.5,29.76,NW,315,4.0,9.0,90,0.04,,,0.04,meteohub,2013-03-12 22:44:00,
2013-03-12 18:49:00,53.4,50.5,29.77,NW,315,11.0,11.0,90,0.05,,,0.05,meteohub,2013-03-12 22:49:00,
2013-03-12 18:54:00,53.4,50.5,29.75,SE,135,5.0,11.0,90,0.06,,,0.06,meteohub,2013-03-12 22:54:00,
2013-03-12 19:00:00,53.4,50.5,29.76,WNW,293,7.0,11.0,90,0.06,,,0.07,meteohub,2013-03-12 23:00:00,
2013-03-12 19:05:00,53.4,50.5,29.76,NW,315,9.0,11.0,90,0.07,,,0.08,meteohub,2013-03-12 23:05:00,
2013-03-12 19:10:00,53.4,50.9,29.75,NW,315,10.0,11.0,91,0.08,,,0.09,meteohub,2013-03-12 23:10:00,
2013-03-12 19:16:00,53.2,50.7,29.76,West,270,8.0,10.0,91,0.11,,,0.12,meteohub,2013-03-12 23:16:00,
2013-03-12 19:21:00,53.4,50.9,29.75,NW,315,4.0,10.0,91,0.11,,,0.13,meteohub,2013-03-12 23:21:00,
2013-03-12 19:26:00,53.4,50.9,29.75,WNW,293,4.0,10.0,91,0.12,,,0.14,meteohub,2013-03-12 23:26:00,
2013-03-12 19:31:00,53.4,50.9,29.75,West,270,4.0,8.0,91,0.13,,,0.15,meteohub,2013-03-12 23:31:00,
2013-03-12 19:36:00,53.4,50.9,29.75,West,270,4.0,10.0,91,0.13,,,0.17,meteohub,2013-03-12 23:36:00,
2013-03-12 19:42:00,53.2,50.7,29.74,NW,315,8.0,10.0,91,0.14,,,0.18,meteohub,2013-03-12 23:42:00,
2013-03-12 19:47:00,53.4,50.9,29.74,West,270,4.0,10.0,91,0.14,,,0.19,meteohub,2013-03-12 23:47:00,
2013-03-12 19:52:00,53.4,50.9,29.73,West,270,5.0,9.0,91,0.14,,,0.20,meteohub,2013-03-12 23:52:00,
2013-03-12 19:57:00,53.4,51.1,29.73,NW,315,8.0,11.0,92,0.15,,,0.22,meteohub,2013-03-12 23:57:00,
2013-03-12 20:02:00,53.4,51.1,29.73,NW,315,3.0,11.0,92,0.15,,,0.24,meteohub,2013-03-13 00:02:00,
2013-03-12 20:07:00,53.4,51.1,29.73,West,270,7.0,11.0,92,0.17,,,0.25,meteohub,2013-03-13 00:07:00,
2013-03-12 20:12:00,53.4,51.1,29.72,NW,315,11.0,11.0,92,0.18,,,0.28,meteohub,2013-03-13 00:12:00,
2013-03-12 20:17:00,53.8,51.3,29.72,NW,315,7.0,11.0,91,0.17,,,0.28,meteohub,2013-03-13 00:17:00,
2013-03-12 20:23:00,53.8,51.3,29.71,NW,315,3.0,11.0,91,0.17,,,0.30,meteohub,2013-03-13 00:23:00,
2013-03-12 20:28:00,54.0,51.4,29.71,West,270,8.0,11.0,91,0.14,,,0.30,meteohub,2013-03-13 00:28:00,
2013-03-12 20:33:00,54.0,51.4,29.72,West,270,8.0,11.0,91,0.13,,,0.30,meteohub,2013-03-13 00:33:00,
2013-03-12 20:38:00,54.1,51.6,29.71,South,180,7.0,10.0,91,0.12,,,0.30,meteohub,2013-03-13 00:38:00,
2013-03-12 20:43:00,54.3,52.0,29.72,West,270,6.0,13.0,92,0.13,,,0.31,meteohub,2013-03-13 00:43:00,
2013-03-12 20:49:00,54.3,52.0,29.72,NW,315,6.0,13.0,92,0.11,,,0.31,meteohub,2013-03-13 00:49:00,
2013-03-12 20:54:00,54.3,52.0,29.72,West,270,4.0,9.0,92,0.09,,,0.31,meteohub,2013-03-13 00:54:00,
2013-03-12 20:59:00,54.3,52.0,29.72,West,270,4.0,9.0,92,0.07,,,0.31,meteohub,2013-03-13 00:59:00,
2013-03-12 21:05:00,54.3,52.0,29.72,NW,315,4.0,8.0,92,0.06,,,0.31,meteohub,2013-03-13 01:05:00,
2013-03-12 21:10:00,54.3,52.0,29.72,NW,315,4.0,6.0,92,0.05,,,0.31,meteohub,2013-03-13 01:10:00,
2013-03-12 21:15:00,54.3,52.0,29.72,WNW,293,4.0,9.0,92,0.04,,,0.32,meteohub,2013-03-13 01:15:00,
2013-03-12 21:20:00,54.3,52.0,29.72,NW,315,5.0,9.0,92,0.02,,,0.32,meteohub,2013-03-13 01:20:00,
2013-03-12 21:25:00,54.3,52.0,29.72,North,0,7.0,11.0,92,0.02,,,0.32,meteohub,2013-03-13 01:25:00,
2013-03-12 21:30:00,54.3,51.8,29.72,West,270,3.0,11.0,91,0.02,,,0.32,meteohub,2013-03-13 01:30:00,
2013-03-12 21:36:00,54.1,51.6,29.72,NW,315,4.0,11.0,91,0.02,,,0.32,meteohub,2013-03-13 01:36:00,
2013-03-12 21:41:00,54.1,51.6,29.72,South,180,4.0,8.0,91,0.01,,,0.32,meteohub,2013-03-13 01:41:00,
2013-03-12 21:46:00,54.0,51.4,29.72,WNW,293,2.0,5.0,91,0.01,,,0.32,meteohub,2013-03-13 01:46:00,
2013-03-12 21:51:00,53.8,51.3,29.72,NW,315,3.0,5.0,91,0.01,,,0.32,meteohub,2013-03-13 01:51:00,
2013-03-12 21:57:00,53.8,50.9,29.72,West,270,3.0,4.0,90,0.01,,,0.32,meteohub,2013-03-13 01:57:00,
2013-03-12 22:02:00,53.6,50.7,29.71,NW,315,7.0,7.0,90,0.01,,,0.32,meteohub,2013-03-13 02:02:00,
2013-03-12 22:07:00,53.6,50.7,29.72,West,270,4.0,8.0,90,0.01,,,0.32,meteohub,2013-03-13 02:07:00,
2013-03-12 22:12:00,53.6,50.7,29.72,North,0,3.0,8.0,90,0.00,,,0.32,meteohub,2013-03-13 02:12:00,
2013-03-12 22:17:00,53.6,50.7,29.71,NW,315,2.0,8.0,90,0.00,,,0.32,meteohub,2013-03-13 02:17:00,
2013-03-12 22:22:00,53.4,50.9,29.71,NW,315,4.0,7.0,91,0.00,,,0.32,meteohub,2013-03-13 02:22:00,
2013-03-12 22:27:00,53.2,50.7,29.71,NW,315,3.0,7.0,91,0.00,,,0.32,meteohub,2013-03-13 02:27:00,
2013-03-12 22:32:00,53.2,50.7,29.71,West,270,4.0,7.0,91,0.00,,,0.32,meteohub,2013-03-13 02:32:00,
2013-03-12 22:38:00,53.2,50.7,29.70,South,180,2.0,7.0,91,0.00,,,0.32,meteohub,2013-03-13 02:38:00,
2013-03-12 22:43:00,53.1,50.5,29.71,NW,315,4.0,7.0,91,0.00,,,0.32,meteohub,2013-03-13 02:43:00,
2013-03-12 22:48:00,53.1,50.5,29.71,South,180,2.0,6.0,91,0.00,,,0.32,meteohub,2013-03-13 02:48:00,
2013-03-12 22:53:00,53.1,50.7,29.72,NW,315,2.0,6.0,92,0.00,,,0.32,meteohub,2013-03-13 02:53:00,
2013-03-12 22:58:00,52.9,50.5,29.72,NW,315,3.0,7.0,92,0.00,,,0.32,meteohub,2013-03-13 02:58:00,
2013-03-12 23:03:00,52.9,50.5,29.71,NW,315,4.0,7.0,92,0.00,,,0.32,meteohub,2013-03-13 03:03:00,
2013-03-12 23:09:00,52.9,50.5,29.72,NW,315,2.0,7.0,92,0.00,,,0.32,meteohub,2013-03-13 03:09:00,
2013-03-12 23:14:00,52.7,50.4,29.71,West,270,2.0,6.0,92,0.00,,,0.32,meteohub,2013-03-13 03:14:00,
2013-03-12 23:19:00,52.5,50.2,29.72,West,270,2.0,6.0,92,0.00,,,0.32,meteohub,2013-03-13 03:19:00,
2013-03-12 23:24:00,52.5,50.2,29.72,West,270,2.0,6.0,92,0.00,,,0.32,meteohub,2013-03-13 03:24:00,
2013-03-12 23:30:00,52.3,50.0,29.72,NW,315,2.0,3.0,92,0.00,,,0.32,meteohub,2013-03-13 03:30:00,
2013-03-12 23:35:00,52.3,50.0,29.72,South,180,2.0,3.0,92,0.00,,,0.32,meteohub,2013-03-13 03:35:00,
2013-03-12 23:40:00,52.3,50.0,29.72,NW,315,0.0,3.0,92,0.00,,,0.32,meteohub,2013-03-13 03:40:00,
2013-03-12 23:45:00,52.2,49.8,29.71,North,0,1.0,3.0,92,0.00,,,0.32,meteohub,2013-03-13 03:45:00,
2013-03-12 23:50:00,52.2,49.8,29.71,NW,315,1.0,3.0,92,0.00,,,0.32,meteohub,2013-03-13 03:50:00,
2013-03-12 23:56:00,52.0,49.6,29.71,West,270,2.0,2.0,92,0.00,,,0.32,meteohub,2013-03-13 03:56:00,